x

South Hecate Strait (46185) Wave Buoy

1:00pm - Wed 1st Jul 2015 All times are PDT. -7 hours from GMT.

  • Sig Wave height 3.6ft
  • Peak Period 6s
  • Wind
    16mph, 18mph gusts
  • Sea Temp 58°f
  • Air Temp 58°f
  • Sea Pressure 1023.4mb
  • South Hecate Strait
  • South Hecate Strait

More Historic Weather Station data

Upgrade to MSW Pro to gain access to the past 30 days of data for over 8000 Wavebouys and Weather Stations around the globe.

Join Pro

Comparision Forecast

View Surf forecast
   
Wed 07/01 1:00pm 3.5ft 6s 16 18 mph 1023.4mb 58f 58f
12:00pm 3.5ft 6s 18 20 mph 1023.3mb 58f 58f
11:00am 4ft 14s 18 20 mph 1023.5mb 58f 57f
10:00am 4.5ft 5s 18 22 mph 1023.3mb 58f 57f
9:00am 4.5ft 6s 18 22 mph 1023.7mb 58f 57f
8:00am 4.5ft 6s  -  mph 1023.8mb 58f 57f
7:00am  -   -  20
mph
1023.9mb 58f 57f
6:00am 5ft 5s 22 27 mph 1023.7mb 58f 57f
5:00am 5ft 6s 22 27 mph 1023.7mb 58f 57f
4:00am  -   -  25
mph
1024mb 58f 57f
3:00am 5ft 6s 25 29 mph 1024.4mb 58f 57f
1:00am 4.5ft 5s 25 31 mph 1024.4mb 58f 58f
12:00am 4ft 5s 22 29 mph 1024.5mb 59f 58f
Tue 06/30 10:00pm 3.5ft 15s 20 25 mph 1024.9mb 59f 59f
9:00pm 3.5ft 14s 18 20 mph 1024.9mb 59f 59f
8:00pm 3.5ft 15s 16 18 mph 1025.1mb 58f 59f
7:00pm 3.5ft 14s 16 18 mph 1025.3mb 60f 60f
6:00pm 3.5ft 5s  -  mph 1025.4mb 60f 59f
5:00pm 3.5ft 16s 16 20 mph 1025.5mb 60f 59f
3:00pm 4.5ft 6s 18 20 mph 1025.2mb 60f 59f
2:00pm 5ft 6s 20 25 mph 1025mb 59f 59f
1:00pm 5ft 6s 22 25 mph 1025mb 59f 58f
12:00pm 5ft 6s 20 25 mph 1024.7mb 59f 58f
11:00am 5ft 6s 22 25 mph 1024.6mb 59f 58f
10:00am 5ft 6s 20 25 mph 1024.6mb 58f 58f
9:00am 5.5ft 6s 22 27 mph 1023.7mb 58f 58f
8:00am  -   -  22
mph
1023.7mb 59f 58f
7:00am 5.5ft 6s 20 25 mph 1024.1mb 59f 58f
6:00am 5.5ft 6s 22 27 mph 1023.1mb 59f 58f
5:00am 5ft 6s 25 29 mph 1022.2mb 59f 58f
4:00am 5ft 6s 22 29 mph 1022.1mb 60f 59f
2:00am 5ft 16s 22 27 mph 1021.2mb 60f 59f
1:00am  -   -  22
mph
1020.7mb - 59f
12:00am 5ft 5s 25 29 mph 1020mb 58f 60f
Mon 06/29 11:00pm 4ft 5s 25 27 mph 1019.7mb 60f 60f
10:00pm 3ft 4s 20 27 mph 1019.5mb 61f 61f
9:00pm 2.5ft 16s 20 25 mph 1019.2mb 61f 61f
8:00pm 2.5ft 16s 18 22 mph 1019mb 61f 61f
7:00pm 2ft 16s 13 16 mph 1019.2mb 62f 62f
6:00pm 2.5ft 17s 11 13 mph 1019.1mb 62f 62f
5:00pm 2.5ft 13s 9 11 mph 1019.1mb 62f 62f
4:00pm 2.5ft 17s 11 13 mph 1019mb 60f 61f
3:00pm 2.5ft 16s 11 13 mph 1019mb 61f 61f
2:00pm 2.5ft 15s 11 13 mph 1018.5mb 61f 61f
1:00pm 2ft 16s 13
mph
1018.1mb 60f 61f
12:00pm 2ft 16s 13 16 mph 1017.6mb 60f 61f
11:00am 2ft 15s 9
mph
1017.1mb 60f 61f
10:00am 2ft 16s 11 13 mph 1017mb 60f 61f
9:00am 2ft 13s 13
mph
1017mb 60f 61f
8:00am 2.5ft 17s 13 16 mph 1016.8mb 60f 61f
7:00am 2ft 16s 7 9 mph 1016.6mb 60f 60f
6:00am 1.6ft 17s 4 7 mph 1016.4mb 60f 60f
5:00am 1.6ft 17s 9
mph
1016mb 60f 60f
4:00am 1.6ft 17s 7 9 mph 1015.7mb 60f 60f
3:00am 1.6ft 17s 9
mph
1015.6mb 60f 61f
2:00am 1.6ft 17s 9 13 mph 1015.3mb 60f 62f
1:00am 1.6ft 17s 9
mph
1015.1mb 60f 61f
12:00am 1.6ft 14s 9 11 mph 1015.1mb 60f 62f
Sun 06/28 11:00pm 1.6ft 17s 11 13 mph 1015mb 60f 62f
10:00pm 1.6ft 17s 9 11 mph 1015.1mb 61f 62f
9:00pm 1.6ft 16s 9 11 mph 1015mb 61f 62f
8:00pm 1.6ft 17s 7 9 mph 1015.4mb 61f 62f
7:00pm 1.6ft 13s  -  mph 1016mb 61f 62f
6:00pm 1.6ft 14s  -  mph 1016.8mb 61f 62f
5:00pm 1.6ft 18s 9 11 mph 1016.9mb 62f 62f
4:00pm 1.6ft 18s 9 11 mph 1017.5mb 61f 61f
3:00pm 1.6ft 14s  -  mph 1017.3mb 61f 61f
2:00pm 2ft 9s 9
mph
1018mb 61f 60f
1:00pm 2ft 8s 9 11 mph 1018.4mb 61f 60f
12:00pm 2.5ft 8s 7 9 mph 1018.4mb 61f 61f
11:00am 2ft 8s 7 9 mph 1018.2mb 60f 60f
10:00am 2ft 14s 4 7 mph 1018.4mb 60f 60f
9:00am 2ft 9s 7 9 mph 1018.3mb 60f 60f
8:00am 2ft 14s 7 9 mph 1018.7mb 59f 60f
7:00am 1.6ft 14s 7
mph
1018.9mb 59f 60f
6:00am 1.6ft 12s 4 7 mph 1018.8mb 60f 60f
5:00am 2ft 14s 4 7 mph 1018.9mb 60f 60f
4:00am 1.6ft 14s 4 7 mph 1018.8mb 60f 60f
3:00am 1.6ft 10s 2 4 mph 1019.1mb 59f 59f
2:00am 1.6ft 14s 4
mph
1019.2mb 59f 59f
1:00am 1.6ft 14s 4
mph
1019.2mb 60f 59f
12:00am 2ft 14s 4
mph
1019.1mb 60f 59f
Sat 06/27 11:00pm 2ft 10s 2 4 mph 1019.7mb 60f 59f
10:00pm 2ft 14s 4 7 mph 1019.7mb 60f 60f